Time;durP1;ratioP1;P1;durP2;ratioP2;P2;SDS_P1;SDS_P2;PMS_P1;PMS_P2;Temp;Humidity;BMP_temperature;BMP_pressure;BME280_temperature;BME280_humidity;BME280_pressure;Samples;Min_cycle;Max_cycle;Signal;HPM_P1;HPM_P2
2023/09/10 00:01:34;;;;;;;46.20;37.08;;;;;;;18.17;100.00;101849.34;5072815;28;20056;-76
2023/09/10 00:04:00;;;;;;;50.65;35.17;;;;;;;18.15;100.00;101853.06;5072455;28;20033;-76
2023/09/10 00:06:25;;;;;;;43.55;34.05;;;;;;;18.12;100.00;101855.22;5072353;28;20044;-76
2023/09/10 00:08:50;;;;;;;43.78;34.30;;;;;;;18.10;100.00;101855.38;5072699;28;20439;-76
2023/09/10 00:11:16;;;;;;;43.67;33.33;;;;;;;18.08;100.00;101853.88;5071913;28;20049;-77
2023/09/10 00:13:41;;;;;;;44.50;33.95;;;;;;;18.05;100.00;101848.81;5072662;28;20044;-76
2023/09/10 00:16:06;;;;;;;41.00;32.67;;;;;;;18.03;100.00;101859.75;5071324;28;20032;-76
2023/09/10 00:18:32;;;;;;;41.30;32.75;;;;;;;18.00;100.00;101859.22;5072364;28;20032;-76
2023/09/10 00:20:57;;;;;;;43.92;34.25;;;;;;;17.98;100.00;101857.53;5072363;28;20025;-76
2023/09/10 00:23:22;;;;;;;45.00;33.47;;;;;;;17.97;100.00;101857.69;5071827;28;20033;-76
2023/09/10 00:25:48;;;;;;;44.90;34.85;;;;;;;17.94;100.00;101850.81;5054553;28;20102;-76
2023/09/10 00:28:13;;;;;;;43.65;34.65;;;;;;;17.92;100.00;101849.28;5071943;28;20035;-77
2023/09/10 00:30:39;;;;;;;44.47;32.08;;;;;;;17.89;100.00;101847.75;5072430;28;20032;-76
2023/09/10 00:33:04;;;;;;;45.45;33.58;;;;;;;17.87;100.00;101849.75;5072525;28;20037;-76
2023/09/10 00:35:29;;;;;;;47.03;36.00;;;;;;;17.85;100.00;101840.13;5071979;28;20028;-76
2023/09/10 00:37:55;;;;;;;45.90;34.20;;;;;;;17.83;100.00;101834.09;5072158;28;20056;-77
2023/09/10 00:40:20;;;;;;;41.80;33.10;;;;;;;17.81;100.00;101842.31;5070807;28;20468;-76
2023/09/10 00:42:46;;;;;;;43.80;33.35;;;;;;;17.77;100.00;101841.78;5072444;28;20028;-78
2023/09/10 00:45:14;;;;;;;43.50;33.50;;;;;;;17.78;100.00;101842.66;5072475;28;20064;-76
2023/09/10 00:47:47;;;;;;;46.75;37.00;;;;;;;17.77;100.00;101839.09;5071983;28;20059;-76
2023/09/10 00:50:14;;;;;;;46.25;35.40;;;;;;;17.77;100.00;101843.66;5072430;28;20037;-79
2023/09/10 00:52:42;;;;;;;41.13;32.67;;;;;;;17.74;100.00;101839.41;5071916;28;20032;-78
2023/09/10 00:55:08;;;;;;;46.80;35.05;;;;;;;17.72;100.00;101835.19;5072158;28;20093;-78
2023/09/10 00:57:33;;;;;;;45.13;33.78;;;;;;;17.71;100.00;101838.91;5071504;28;20040;-78
2023/09/10 00:59:59;;;;;;;43.65;34.22;;;;;;;17.71;100.00;101838.91;5054135;28;20380;-78
2023/09/10 01:02:26;;;;;;;46.40;34.88;;;;;;;17.69;100.00;101840.91;5071857;28;20081;-78
2023/09/10 01:04:51;;;;;;;52.90;35.22;;;;;;;17.67;100.00;101834.84;5070891;28;20484;-78
2023/09/10 01:07:17;;;;;;;50.10;37.10;;;;;;;17.67;100.00;101834.84;5054129;28;20071;-78
2023/09/10 01:09:42;;;;;;;46.85;35.83;;;;;;;17.66;100.00;101841.22;5075219;28;20120;-78
2023/09/10 01:12:26;;;;;;;42.67;34.53;;;;;;;17.64;100.00;101838.69;5074338;28;20147;-76
2023/09/10 01:15:21;;;;;;;43.97;33.10;;;;;;;17.59;100.00;101843.72;5075851;28;20032;-78
2023/09/10 01:18:02;;;;;;;47.15;36.88;;;;;;;17.56;100.00;101842.19;5076028;28;20024;-78
2023/09/10 01:21:04;;;;;;;49.40;36.05;;;;;;;17.55;100.00;101834.28;5075041;28;20098;-76
2023/09/10 01:24:07;;;;;;;48.30;35.65;;;;;;;17.53;100.00;101842.53;5074039;28;20028;-78
2023/09/10 01:26:36;;;;;;;46.45;33.58;;;;;;;17.52;100.00;101848.06;5075490;28;20484;-77
2023/09/10 01:29:02;;;;;;;42.53;34.15;;;;;;;17.50;100.00;101847.41;5075460;28;20024;-78
2023/09/10 01:31:30;;;;;;;47.95;38.35;;;;;;;17.50;100.00;101850.09;5075075;28;20055;-78
2023/09/10 01:34:01;;;;;;;49.65;35.25;;;;;;;17.48;100.00;101844.00;5075559;28;20113;-79
2023/09/10 01:36:41;;;;;;;44.15;32.95;;;;;;;17.45;100.00;101837.09;5073815;28;20461;-78
2023/09/10 01:39:15;;;;;;;46.22;34.53;;;;;;;17.43;100.00;101841.78;5075411;28;20028;-79
2023/09/10 01:41:41;;;;;;;39.95;30.63;;;;;;;17.42;100.00;101837.41;5074811;28;20073;-77
2023/09/10 01:44:08;;;;;;;50.13;35.42;;;;;;;17.40;100.00;101842.94;5075609;28;20467;-78
2023/09/10 01:46:35;;;;;;;43.08;34.05;;;;;;;17.38;100.00;101844.97;5074655;28;20032;-78
2023/09/10 01:49:03;;;;;;;44.72;34.20;;;;;;;17.38;100.00;101846.81;5074942;28;20397;-78
2023/09/10 01:51:29;;;;;;;38.40;32.28;;;;;;;17.37;100.00;101845.97;5074361;28;20024;-78
2023/09/10 01:53:54;;;;;;;41.15;31.55;;;;;;;17.34;100.00;101840.91;5075186;28;20051;-78
2023/09/10 01:56:20;;;;;;;39.28;30.25;;;;;;;17.33;100.00;101846.44;5075087;28;20111;-78
2023/09/10 01:58:46;;;;;;;36.97;32.28;;;;;;;17.31;100.00;101845.78;5074474;28;20037;-78
2023/09/10 02:01:11;;;;;;;41.03;32.95;;;;;;;17.33;100.00;101841.06;5074902;28;20035;-78
2023/09/10 02:03:36;;;;;;;41.83;32.08;;;;;;;17.30;100.00;101842.22;5073177;28;20033;-78
2023/09/10 02:06:03;;;;;;;37.70;30.20;;;;;;;17.27;100.00;101846.09;5073840;28;20028;-78
2023/09/10 02:08:29;;;;;;;36.67;30.05;;;;;;;17.25;100.00;101848.06;5073177;28;20033;-78
2023/09/10 02:10:55;;;;;;;37.95;31.38;;;;;;;17.25;100.00;101853.47;5074659;28;20036;-78
2023/09/10 02:13:20;;;;;;;37.50;30.88;;;;;;;17.24;100.00;101854.47;5074836;28;20033;-78
2023/09/10 02:15:46;;;;;;;41.90;31.60;;;;;;;17.24;100.00;101854.47;5074324;28;20037;-77
2023/09/10 02:18:11;;;;;;;39.10;32.42;;;;;;;17.22;100.00;101853.78;5074562;28;20526;-76
2023/09/10 02:20:37;;;;;;;47.25;34.58;;;;;;;17.22;100.00;101853.78;5073352;28;20463;-77
2023/09/10 02:23:03;;;;;;;40.80;32.67;;;;;;;17.21;100.00;101853.94;5073096;28;20132;-77
2023/09/10 02:25:29;;;;;;;39.35;32.55;;;;;;;17.19;100.00;101846.03;5074235;28;20078;-77
2023/09/10 02:27:54;;;;;;;42.40;33.85;;;;;;;17.18;100.00;101847.06;5074613;28;20025;-77
2023/09/10 02:30:20;;;;;;;39.45;33.28;;;;;;;17.18;100.00;101841.66;5073201;28;20583;-77
2023/09/10 02:32:45;;;;;;;46.63;35.35;;;;;;;17.19;100.00;101848.72;5072741;28;20435;-76
2023/09/10 02:35:11;;;;;;;42.78;33.88;;;;;;;17.17;100.00;101845.34;5074483;28;20111;-76
2023/09/10 02:37:36;;;;;;;42.00;32.83;;;;;;;17.16;100.00;101840.97;5073844;28;20033;-77
2023/09/10 02:40:01;;;;;;;40.20;33.08;;;;;;;17.17;100.00;101836.44;5074141;28;20427;-77
2023/09/10 02:42:27;;;;;;;44.13;35.95;;;;;;;17.16;100.00;101835.59;5072867;28;20451;-77
2023/09/10 02:44:52;;;;;;;44.67;33.42;;;;;;;17.14;100.00;101837.59;5073223;28;20178;-77
2023/09/10 02:47:17;;;;;;;42.53;31.70;;;;;;;17.14;100.00;101839.44;5074176;28;20111;-78
2023/09/10 02:49:43;;;;;;;41.55;32.78;;;;;;;17.13;100.00;101837.75;5073571;28;20461;-77
2023/09/10 02:52:08;;;;;;;40.08;32.13;;;;;;;17.10;100.00;101834.38;5073896;28;20032;-77
2023/09/10 02:54:35;;;;;;;36.05;29.63;;;;;;;17.09;100.00;101834.53;5073644;28;20384;-78
2023/09/10 02:57:00;;;;;;;36.50;29.63;;;;;;;17.09;100.00;101837.22;5073538;28;20403;-77
2023/09/10 02:59:26;;;;;;;40.58;33.78;;;;;;;17.09;100.00;101829.16;5073723;28;20032;-77
2023/09/10 03:01:53;;;;;;;47.97;34.90;;;;;;;17.08;100.00;101832.88;5071919;28;20427;-76
2023/09/10 03:04:19;;;;;;;39.13;31.25;;;;;;;17.07;100.00;101833.84;5072308;28;20475;-77
2023/09/10 03:06:49;;;;;;;37.75;29.52;;;;;;;17.06;100.00;101833.03;5072898;28;20465;-77
2023/09/10 03:09:15;;;;;;;39.55;31.23;;;;;;;17.06;100.00;101838.41;5073525;28;20123;-77
2023/09/10 03:11:42;;;;;;;37.67;30.90;;;;;;;17.06;100.00;101838.41;5072938;28;20495;-76
2023/09/10 03:14:09;;;;;;;39.15;31.10;;;;;;;17.06;100.00;101841.09;5073397;28;20028;-77
2023/09/10 03:16:35;;;;;;;39.38;30.65;;;;;;;17.05;100.00;101838.56;5073387;28;20033;-77
2023/09/10 03:19:01;;;;;;;38.03;29.20;;;;;;;17.02;100.00;101834.34;5072792;28;20036;-77
2023/09/10 03:21:27;;;;;;;39.70;31.13;;;;;;;17.00;100.00;101824.72;5073291;28;20032;-76
2023/09/10 03:23:53;;;;;;;40.03;30.15;;;;;;;16.99;100.00;101829.28;5072840;28;20055;-76
2023/09/10 03:26:18;;;;;;;40.60;31.42;;;;;;;16.98;100.00;101821.38;5073160;28;20476;-76
2023/09/10 03:28:43;;;;;;;42.53;32.08;;;;;;;16.96;100.00;101821.53;5072456;28;20029;-77
2023/09/10 03:31:09;;;;;;;42.85;31.58;;;;;;;16.94;100.00;101820.81;5072069;28;20476;-77
2023/09/10 03:33:35;;;;;;;41.05;30.38;;;;;;;16.92;100.00;101815.59;5073098;28;20059;-77
2023/09/10 03:36:00;;;;;;;39.88;29.70;;;;;;;16.92;100.00;101817.44;5072658;28;20218;-77
2023/09/10 03:38:25;;;;;;;34.58;27.92;;;;;;;16.90;100.00;101817.63;5072979;28;20393;-76
2023/09/10 03:40:51;;;;;;;43.28;32.65;;;;;;;16.90;100.00;101817.63;5072151;28;20461;-77
2023/09/10 03:43:16;;;;;;;45.42;30.73;;;;;;;16.89;100.00;101815.09;5072591;28;20032;-76
2023/09/10 03:45:42;;;;;;;39.10;30.45;;;;;;;16.88;100.00;101821.44;5072111;28;20036;-77
2023/09/10 03:48:07;;;;;;;40.20;30.40;;;;;;;16.86;100.00;101813.50;5072955;28;20489;-76
2023/09/10 03:50:34;;;;;;;37.67;29.17;;;;;;;16.84;100.00;101815.53;5072585;28;20119;-77
2023/09/10 03:53:00;;;;;;;33.53;26.80;;;;;;;16.83;100.00;101815.69;5072103;28;20039;-76
2023/09/10 03:55:25;;;;;;;37.97;29.17;;;;;;;16.81;100.00;101809.59;5072631;28;20528;-77
2023/09/10 03:57:50;;;;;;;38.17;29.17;;;;;;;16.81;100.00;101812.28;5072398;28;20503;-77
2023/09/10 04:00:16;;;;;;;35.55;29.40;;;;;;;16.81;100.00;101814.97;5054671;28;20120;-77
2023/09/10 04:02:41;;;;;;;41.67;30.23;;;;;;;16.80;100.00;101808.75;5071328;28;20059;-77
2023/09/10 04:05:09;;;;;;;38.83;30.80;;;;;;;16.80;100.00;101816.00;5072849;28;20492;-77
2023/09/10 04:07:35;;;;;;;40.50;30.88;;;;;;;16.80;100.00;101813.31;5071208;28;20033;-76
2023/09/10 04:10:00;;;;;;;39.65;29.30;;;;;;;16.80;100.00;101818.69;5071977;28;20381;-77
2023/09/10 04:12:26;;;;;;;41.25;31.88;;;;;;;16.78;100.00;101821.53;5072604;28;20051;-77
2023/09/10 04:14:51;;;;;;;40.60;31.35;;;;;;;16.75;100.00;101811.91;5070935;28;20479;-77
2023/09/10 04:17:17;;;;;;;47.22;32.88;;;;;;;16.75;100.00;101816.47;5071210;28;20028;-77
2023/09/10 04:19:43;;;;;;;39.28;31.05;;;;;;;16.74;100.00;101814.78;5072418;28;20446;-77
2023/09/10 04:22:08;;;;;;;39.08;31.08;;;;;;;16.73;100.00;101815.75;5070470;28;20378;-77
2023/09/10 04:24:34;;;;;;;41.10;32.10;;;;;;;16.72;100.00;101808.72;5072479;28;20085;-77
2023/09/10 04:26:59;;;;;;;38.65;32.05;;;;;;;16.72;100.00;101808.72;5071953;28;20032;-77
2023/09/10 04:29:25;;;;;;;41.22;32.03;;;;;;;16.70;100.00;101816.91;5072437;28;20075;-77
2023/09/10 04:31:50;;;;;;;41.75;31.65;;;;;;;16.69;100.00;101819.75;5072089;28;20488;-77
2023/09/10 04:34:16;;;;;;;43.60;31.90;;;;;;;16.68;100.00;101815.41;5072107;28;20380;-77
2023/09/10 04:36:42;;;;;;;43.35;32.65;;;;;;;16.68;100.00;101812.72;5071114;28;20119;-77
2023/09/10 04:39:08;;;;;;;43.97;33.20;;;;;;;16.68;100.00;101812.72;5071925;28;20101;-76
2023/09/10 04:41:35;;;;;;;42.17;30.85;;;;;;;16.67;100.00;101819.06;5072430;28;20106;-77
2023/09/10 04:44:00;;;;;;;44.15;31.83;;;;;;;16.65;100.00;101813.84;5075638;28;20032;-77
2023/09/10 04:46:27;;;;;;;50.10;35.65;;;;;;;16.65;100.00;101813.84;5076275;28;20154;-77
2023/09/10 04:48:52;;;;;;;44.85;31.85;;;;;;;16.65;100.00;101821.09;5075547;28;20434;-77
2023/09/10 04:51:18;;;;;;;48.00;35.03;;;;;;;16.65;100.00;101810.34;5076098;28;20123;-76
2023/09/10 04:53:44;;;;;;;47.28;35.05;;;;;;;16.63;100.00;101815.88;5076178;28;20032;-77
2023/09/10 04:56:10;;;;;;;45.65;34.85;;;;;;;16.61;100.00;101819.69;5074507;28;20117;-76
2023/09/10 04:58:35;;;;;;;53.55;37.35;;;;;;;16.60;100.00;101810.81;5076225;28;20036;-76
2023/09/10 05:01:01;;;;;;;60.80;39.58;;;;;;;16.61;100.00;101817.84;5075508;28;20033;-77
2023/09/10 05:03:26;;;;;;;58.92;40.40;;;;;;;16.60;100.00;101807.25;5075922;28;20052;-77
2023/09/10 05:06:00;;;;;;;52.60;38.47;;;;;;;16.62;100.00;101816.03;5075556;28;20115;-77
2023/09/10 05:08:26;;;;;;;60.60;41.60;;;;;;;16.62;100.00;101818.72;5076127;28;20036;-77
2023/09/10 05:10:51;;;;;;;51.70;38.05;;;;;;;16.61;100.00;101817.84;5075099;28;20468;-77
2023/09/10 05:13:16;;;;;;;60.03;41.42;;;;;;;16.62;100.00;101813.34;5075908;28;20094;-77
2023/09/10 05:15:45;;;;;;;56.30;40.55;;;;;;;16.62;100.00;101813.34;5075725;28;20056;-76
2023/09/10 05:18:11;;;;;;;60.33;42.15;;;;;;;16.63;100.00;101809.63;5074938;28;20040;-76
2023/09/10 05:20:36;;;;;;;63.83;42.88;;;;;;;16.63;100.00;101810.50;5075679;28;20357;-76
2023/09/10 05:23:02;;;;;;;55.47;38.42;;;;;;;16.65;100.00;101815.72;5075345;28;20024;-76
2023/09/10 05:25:27;;;;;;;52.20;38.30;;;;;;;16.66;100.00;101810.19;5075745;28;20032;-76
2023/09/10 05:27:53;;;;;;;59.92;41.08;;;;;;;16.70;100.00;101810.69;5075414;28;20465;-76
2023/09/10 05:30:18;;;;;;;56.40;39.80;;;;;;;16.72;100.00;101804.19;5057792;28;20123;-76
2023/09/10 05:32:43;;;;;;;56.42;40.67;;;;;;;16.76;100.00;101810.06;5075421;28;20037;-76
2023/09/10 05:35:10;;;;;;;57.30;38.88;;;;;;;16.75;100.00;101813.78;5074875;28;20107;-76
2023/09/10 05:37:35;;;;;;;52.35;39.38;;;;;;;16.75;100.00;101816.47;5057456;28;20032;-76
2023/09/10 05:40:01;;;;;;;53.47;39.15;;;;;;;16.77;100.00;101816.31;5074808;28;20041;-76
2023/09/10 05:42:27;;;;;;;62.40;42.45;;;;;;;16.79;100.00;101814.28;5075020;28;20032;-76
2023/09/10 05:44:52;;;;;;;58.65;40.97;;;;;;;16.80;100.00;101816.81;5075254;28;20162;-76
2023/09/10 05:47:19;;;;;;;54.30;39.67;;;;;;;16.82;100.00;101813.97;5074743;28;20085;-76
2023/09/10 05:49:48;;;;;;;56.90;40.63;;;;;;;16.85;100.00;101821.72;5075095;28;20032;-76
2023/09/10 05:52:14;;;;;;;63.25;42.75;;;;;;;16.87;100.00;101820.63;5073293;28;20044;-76
2023/09/10 05:54:40;;;;;;;60.50;44.17;;;;;;;16.90;100.00;101824.84;5072645;28;20041;-76
2023/09/10 05:57:05;;;;;;;54.53;41.15;;;;;;;16.94;100.00;101825.34;5074601;28;20035;-76
2023/09/10 05:59:30;;;;;;;60.60;43.05;;;;;;;16.97;100.00;101827.72;5074835;28;20025;-77
2023/09/10 06:01:56;;;;;;;64.25;42.97;;;;;;;17.01;100.00;101831.81;5074554;28;20110;-76
2023/09/10 06:04:21;;;;;;;66.70;45.28;;;;;;;17.06;100.00;101835.72;5074430;28;20032;-76
2023/09/10 06:06:47;;;;;;;68.95;46.10;;;;;;;17.12;100.00;101838.75;5074524;28;20385;-76
2023/09/10 06:09:12;;;;;;;63.33;43.38;;;;;;;17.16;100.00;101830.22;5072874;28;20180;-76
2023/09/10 06:11:38;;;;;;;66.43;44.15;;;;;;;17.22;100.00;101842.19;5074495;28;20052;-76
2023/09/10 06:14:03;;;;;;;63.67;43.70;;;;;;;17.27;100.00;101850.59;5074300;28;20522;-76
2023/09/10 06:16:28;;;;;;;58.35;43.42;;;;;;;17.34;100.00;101850.84;5072936;28;20037;-76
2023/09/10 06:18:54;;;;;;;63.25;44.00;;;;;;;17.39;100.00;101852.03;5074343;28;20032;-76
2023/09/10 06:21:19;;;;;;;64.57;42.72;;;;;;;17.45;100.00;101853.22;5074045;28;20040;-76
2023/09/10 06:23:44;;;;;;;64.60;45.17;;;;;;;17.53;100.00;101847.06;5074464;28;20024;-76
2023/09/10 06:26:10;;;;;;;65.53;44.63;;;;;;;17.58;100.00;101852.81;5073931;28;20114;-76
2023/09/10 06:28:38;;;;;;;62.63;43.83;;;;;;;17.65;100.00;101856.53;5074412;28;20074;-76
2023/09/10 06:31:03;;;;;;;60.30;43.35;;;;;;;17.71;100.00;101847.00;5073667;28;20437;-79
2023/09/10 06:33:28;;;;;;;58.80;42.40;;;;;;;17.78;100.00;101858.78;5074558;28;20059;-77
2023/09/10 06:35:54;;;;;;;65.38;44.17;;;;;;;17.84;100.00;101857.28;5074260;28;20039;-79
2023/09/10 06:38:20;;;;;;;72.45;48.05;;;;;;;17.93;100.00;101856.38;5073788;28;20404;-76
2023/09/10 06:40:46;;;;;;;67.30;44.67;;;;;;;18.01;100.00;101864.44;5074150;28;20032;-77
2023/09/10 06:43:11;;;;;;;64.20;44.90;;;;;;;18.08;100.00;101860.09;5073808;28;20468;-77
2023/09/10 06:45:38;;;;;;;60.70;41.90;;;;;;;18.18;100.00;101862.63;5073996;28;20028;-77
2023/09/10 06:48:04;;;;;;;63.22;44.38;;;;;;;18.24;100.00;101862.00;5073733;28;20128;-78
2023/09/10 06:50:29;;;;;;;62.30;44.13;;;;;;;18.33;100.00;101868.22;5073978;28;20036;-77
2023/09/10 06:52:55;;;;;;;63.42;44.53;;;;;;;18.45;100.00;101866.06;5072685;28;20353;-77
2023/09/10 06:55:20;;;;;;;60.78;43.80;;;;;;;18.53;100.00;101863.41;5073154;28;20025;-77
2023/09/10 06:57:45;;;;;;;62.88;44.58;;;;;;;18.62;100.00;101859.69;5072615;28;20457;-77
2023/09/10 07:00:11;;;;;;;63.95;44.03;;;;;;;18.71;100.00;101865.09;5073045;28;20101;-77
2023/09/10 07:02:37;;;;;;;63.45;43.05;;;;;;;18.81;100.00;101863.06;5073604;28;20040;-77
2023/09/10 07:05:02;;;;;;;61.75;42.85;;;;;;;18.87;100.00;101859.75;5073712;28;20106;-77
2023/09/10 07:07:28;;;;;;;57.13;41.63;;;;;;;18.96;100.00;101865.94;5072887;28;20047;-77
2023/09/10 07:09:53;;;;;;;60.28;42.20;;;;;;;19.02;100.00;101855.34;5073575;28;20162;-77
2023/09/10 07:12:19;;;;;;;60.35;41.83;;;;;;;19.13;100.00;101858.69;5072603;28;20394;-76
2023/09/10 07:14:45;;;;;;;52.15;40.15;;;;;;;19.22;100.00;101859.53;5073626;28;20036;-76
2023/09/10 07:17:10;;;;;;;55.72;38.33;;;;;;;19.31;100.00;101862.03;5072924;28;20032;-77
2023/09/10 07:19:36;;;;;;;51.65;38.50;;;;;;;19.42;100.00;101857.28;5073227;28;20036;-76
2023/09/10 07:22:02;;;;;;;52.15;37.88;;;;;;;19.50;100.00;101851.88;5072987;28;20504;-76
2023/09/10 07:24:27;;;;;;;53.42;38.45;;;;;;;19.57;100.00;101852.84;5072825;28;20781;-76
2023/09/10 07:26:53;;;;;;;50.75;37.88;;;;;;;19.65;100.00;101857.38;5071986;28;20538;-76
2023/09/10 07:29:18;;;;;;;52.85;37.55;;;;;;;19.73;100.00;101852.81;5072802;28;20393;-76
2023/09/10 07:31:43;;;;;;;48.10;38.42;;;;;;;19.80;100.00;101860.22;5073239;28;20392;-76
2023/09/10 07:34:09;;;;;;;50.22;35.38;;;;;;;19.88;100.00;101854.78;5072850;28;20090;-76
2023/09/10 07:36:35;;;;;;;48.03;36.65;;;;;;;19.98;100.00;101852.69;5073211;28;20024;-77
2023/09/10 07:39:00;;;;;;;53.10;35.60;;;;;;;20.11;100.00;101864.78;5072966;28;20120;-76
2023/09/10 07:41:25;;;;;;;54.85;36.58;;;;;;;20.19;100.00;101852.06;5072178;28;20397;-77
2023/09/10 07:43:51;;;;;;;48.40;35.47;;;;;;;20.29;100.00;101854.56;5073057;28;20038;-76
2023/09/10 07:46:16;;;;;;;47.90;34.33;;;;;;;20.42;100.00;101851.25;5072565;28;20074;-77
2023/09/10 07:48:42;;;;;;;46.67;35.67;;;;;;;20.54;100.00;101854.38;5072875;28;20024;-77
2023/09/10 07:51:07;;;;;;;42.20;33.58;;;;;;;20.61;100.00;101855.34;5072858;28;20206;-77
2023/09/10 07:53:33;;;;;;;44.75;34.90;;;;;;;20.72;100.00;101854.94;5071180;28;20033;-77
2023/09/10 07:55:58;;;;;;;43.85;33.65;;;;;;;20.84;100.00;101852.66;5072969;28;20045;-77
2023/09/10 07:58:24;;;;;;;41.92;33.35;;;;;;;21.02;100.00;101856.88;5072390;28;20377;-77
2023/09/10 08:00:53;;;;;;;41.38;32.72;;;;;;;21.15;100.00;101857.06;5072281;28;20385;-77
2023/09/10 08:03:19;;;;;;;38.17;30.60;;;;;;;21.34;100.00;101858.41;5072270;28;20153;-76
2023/09/10 08:05:44;;;;;;;39.97;31.38;;;;;;;21.47;100.00;101863.19;5072621;28;20131;-76
2023/09/10 08:08:09;;;;;;;41.03;31.05;;;;;;;21.66;100.00;101859.94;5072436;28;20063;-76
2023/09/10 08:10:35;;;;;;;44.45;30.67;;;;;;;21.82;100.00;101867.00;5071998;28;20174;-76
2023/09/10 08:13:03;;;;;;;39.03;29.27;;;;;;;22.15;100.00;101861.16;5070817;28;20044;-77
2023/09/10 08:15:29;;;;;;;46.97;30.48;;;;;;;22.50;100.00;101866.75;5072151;28;20269;-77
2023/09/10 08:17:55;;;;;;;37.45;29.35;;;;;;;22.78;100.00;101848.84;5071719;28;20384;-77
2023/09/10 08:20:22;;;;;;;37.63;29.13;;;;;;;23.05;100.00;101856.19;5072026;28;20432;-77
2023/09/10 08:22:47;;;;;;;41.20;29.48;;;;;;;23.28;100.00;101846.13;5072493;28;20028;-77
2023/09/10 08:25:13;;;;;;;36.28;28.08;;;;;;;23.58;100.00;101852.97;5072400;28;20484;-77
2023/09/10 08:27:39;;;;;;;40.55;28.35;;;;;;;23.81;100.00;101840.13;5070478;28;20393;-78
2023/09/10 08:30:07;;;;;;;36.53;26.77;;;;;;;24.06;100.00;101849.44;5072366;28;20029;-77
2023/09/10 08:32:33;;;;;;;36.65;27.15;;;;;;;24.26;100.00;101841.34;5071671;28;20033;-78
2023/09/10 08:34:58;;;;;;;32.40;27.63;;;;;;;24.44;100.00;101835.28;5072367;28;20028;-77
2023/09/10 08:37:24;;;;;;;37.47;26.02;;;;;;;24.64;100.00;101848.94;5072026;28;20043;-78
2023/09/10 08:39:50;;;;;;;38.35;27.83;;;;;;;24.96;100.00;101837.41;5072029;28;20029;-77
2023/09/10 08:42:30;;;;;;;40.10;26.58;;;;;;;25.30;100.00;101835.50;5071930;28;20025;-76
2023/09/10 08:44:59;;;;;;;;;;;;;;;25.74;100.00;101835.75;5071606;28;20503;-77
2023/09/10 08:47:27;;;;;;;35.75;24.77;;;;;;;26.49;100.00;101829.72;5071883;28;20272;-78
2023/09/10 08:49:58;;;;;;;36.17;25.20;;;;;;;27.17;100.00;101825.31;5070966;28;20032;-78
2023/09/10 08:52:25;;;;;;;35.38;24.45;;;;;;;27.66;100.00;101820.78;5071972;28;20086;-78
2023/09/10 08:54:51;;;;;;;32.95;25.02;;;;;;;28.07;100.00;101821.13;5072171;28;20059;-78
2023/09/10 08:57:16;;;;;;;29.20;23.10;;;;;;;28.56;100.00;101816.38;5072139;28;20472;-77
2023/09/10 08:59:42;;;;;;;32.20;22.95;;;;;;;28.95;100.00;101821.41;5071515;28;20036;-77
2023/09/10 09:02:09;;;;;;;29.73;23.05;;;;;;;29.45;100.00;101828.28;5070993;28;20457;-77
2023/09/10 09:04:35;;;;;;;31.95;24.90;;;;;;;29.55;100.00;101823.00;5072024;28;20473;-77
2023/09/10 09:07:02;;;;;;;30.20;23.20;;;;;;;29.73;100.00;101817.31;5072167;28;20085;-77
2023/09/10 09:09:34;;;;;;;35.55;22.23;;;;;;;29.94;100.00;101825.97;5071688;28;20338;-78
2023/09/10 09:12:03;;;;;;;31.50;21.75;;;;;;;29.78;100.00;101821.25;5071908;28;20033;-77
2023/09/10 09:14:30;;;;;;;26.63;20.40;;;;;;;30.20;100.00;101831.94;5071169;28;20107;-78
2023/09/10 09:16:57;;;;;;;34.08;20.67;;;;;;;30.45;100.00;101819.78;5072479;28;20286;-77
2023/09/10 09:19:27;;;;;;;32.58;21.70;;;;;;;30.74;100.00;101817.78;5071945;28;20111;-77
2023/09/10 09:21:52;;;;;;;29.80;20.90;;;;;;;30.64;100.00;101820.34;5070576;28;20063;-77
2023/09/10 09:24:21;;;;;;;24.58;19.75;;;;;;;30.66;100.00;101821.75;5071840;28;20036;-77
2023/09/10 09:26:47;;;;;;;27.67;17.80;;;;;;;30.82;100.00;101822.00;5071446;28;20123;-76
2023/09/10 09:29:13;;;;;;;25.13;18.17;;;;;;;30.97;100.00;101824.97;5072905;28;20082;-77
2023/09/10 09:31:38;;;;;;;23.15;18.80;;;;;;;31.02;100.00;101816.00;5075018;28;20033;-78
2023/09/10 09:34:04;;;;;;;24.92;17.48;;;;;;;31.30;100.00;101817.75;5074129;28;20051;-76
2023/09/10 09:36:36;;;;;;;21.80;17.10;;;;;;;31.40;100.00;101822.56;5074859;28;20029;-79
2023/09/10 09:39:07;;;;;;;26.88;16.63;;;;;;;31.38;100.00;101810.97;5073868;28;20532;-76
2023/09/10 09:41:34;;;;;;;22.50;15.25;;;;;;;31.40;100.00;101814.31;5073693;28;20037;-77
2023/09/10 09:43:59;;;;;;;22.10;14.45;;;;;;;31.48;100.00;101813.84;5074977;28;20432;-75
2023/09/10 09:46:33;;;;;;;25.80;14.27;;;;;;;31.87;94.74;101812.94;5074928;28;20036;-77
2023/09/10 09:48:59;;;;;;;25.27;14.80;;;;;;;32.10;97.23;101809.03;5074792;28;20403;-77
2023/09/10 09:51:26;;;;;;;18.65;14.25;;;;;;;32.31;97.90;101808.13;5075078;28;20028;-77
2023/09/10 09:53:52;;;;;;;22.33;14.27;;;;;;;32.42;100.00;101808.22;5074664;28;20043;-76
2023/09/10 09:56:17;;;;;;;20.08;13.05;;;;;;;32.59;96.78;101808.06;5074569;28;20036;-76
2023/09/10 09:58:46;;;;;;;15.18;11.98;;;;;;;32.77;100.00;101807.69;5074543;28;20109;-76
2023/09/10 10:01:11;;;;;;;20.25;13.20;;;;;;;32.81;97.81;101800.53;5074717;28;20024;-76
2023/09/10 10:03:37;;;;;;;17.92;12.98;;;;;;;32.71;90.48;101799.66;5073221;28;20040;-76
2023/09/10 10:06:03;;;;;;;20.17;11.63;;;;;;;32.69;83.46;101803.53;5074858;28;20112;-75
2023/09/10 10:08:30;;;;;;;16.02;11.13;;;;;;;32.71;91.13;101805.16;5074654;28;20433;-76
2023/09/10 10:10:56;;;;;;;13.65;9.60;;;;;;;32.74;90.97;101797.22;5074704;28;20361;-75
2023/09/10 10:13:23;;;;;;;19.85;10.77;;;;;;;32.66;78.88;101793.00;5074545;28;20135;-75
2023/09/10 10:15:50;;;;;;;20.50;10.68;;;;;;;32.77;88.33;101796.66;5073946;28;20044;-75
2023/09/10 10:18:16;;;;;;;16.05;9.65;;;;;;;32.75;83.98;101793.34;5074674;28;20510;-76
2023/09/10 10:20:47;;;;;;;19.20;10.43;;;;;;;32.37;84.42;101794.41;5074138;28;20028;-78
2023/09/10 10:23:14;;;;;;;15.35;9.20;;;;;;;32.80;94.64;101787.03;5073260;28;20032;-77
2023/09/10 10:25:41;;;;;;;22.08;10.13;;;;;;;32.93;84.92;101796.75;5074090;28;20465;-76
2023/09/10 10:28:09;;;;;;;24.00;10.13;;;;;;;32.99;87.38;101791.00;5074436;28;20029;-77
2023/09/10 10:30:39;;;;;;;19.05;8.73;;;;;;;33.17;85.05;101786.13;5073985;28;20060;-77
2023/09/10 10:33:09;;;;;;;14.75;8.27;;;;;;;33.22;84.52;101787.00;5074680;28;20037;-77
2023/09/10 10:35:41;;;;;;;15.60;8.48;;;;;;;33.32;87.42;101785.38;5073904;28;20115;-77
2023/09/10 10:38:08;;;;;;;17.23;8.13;;;;;;;33.32;90.91;101780.72;5074351;28;20025;-77
2023/09/10 10:40:39;;;;;;;13.90;7.43;;;;;;;33.15;78.43;101782.81;5073787;28;20432;-77
2023/09/10 10:43:07;;;;;;;11.82;6.22;;;;;;;33.22;80.60;101778.72;5074112;28;20040;-76
2023/09/10 10:45:33;;;;;;;14.10;5.75;;;;;;;33.11;73.29;101782.50;5072751;28;20362;-77
2023/09/10 10:48:07;;;;;;;15.57;5.88;;;;;;;33.17;66.57;101781.44;5072455;28;20036;-77
2023/09/10 10:50:35;;;;;;;12.57;5.75;;;;;;;33.45;68.04;101771.09;5072887;28;20436;-77
2023/09/10 10:53:00;;;;;;;14.30;5.78;;;;;;;33.55;73.09;101773.88;5074111;28;20029;-76
2023/09/10 10:55:26;;;;;;;17.83;5.97;;;;;;;33.69;69.17;101776.94;5073903;28;20028;-77
2023/09/10 10:57:54;;;;;;;15.23;6.05;;;;;;;33.42;64.01;101773.56;5073417;28;20271;-77
2023/09/10 11:00:20;;;;;;;17.45;5.90;;;;;;;33.28;70.84;101765.81;5073836;28;20080;-77